Time;durP1;ratioP1;P1;durP2;ratioP2;P2;SDS_P1;SDS_P2;PMS_P1;PMS_P2;Temp;Humidity;BMP_temperature;BMP_pressure;BME280_temperature;BME280_humidity;BME280_pressure;Samples;Min_cycle;Max_cycle;Signal;HPM_P1;HPM_P2
2023/02/11 07:48:11;;;;;;;40.45;25.40;;;;;;;1.95;55.10;96332.16;5050032;27;2202839;-78
2023/02/11 07:50:36;;;;;;;34.55;23.95;;;;;;;2.78;52.80;96329.13;5114050;28;20482;-77
2023/02/11 07:53:02;;;;;;;36.00;24.15;;;;;;;4.60;49.75;96327.09;5118956;28;20043;-77
2023/02/11 07:55:28;;;;;;;32.55;24.52;;;;;;;4.83;46.63;96324.75;5120917;27;20042;-77
2023/02/11 07:57:53;;;;;;;34.63;24.67;;;;;;;2.56;54.03;96332.09;5112606;28;20034;-76
2023/02/11 08:00:19;;;;;;;36.55;26.48;;;;;;;7.23;42.78;96327.22;5114176;28;20781;-76
2023/02/11 08:02:45;;;;;;;32.70;25.38;;;;;;;6.90;41.76;96317.72;5115680;28;20411;-77
2023/02/11 08:05:10;;;;;;;36.70;25.05;;;;;;;8.78;40.13;96302.84;5114629;28;20042;-77
2023/02/11 08:07:36;;;;;;;31.55;25.20;;;;;;;9.06;38.39;96316.88;5070204;28;20039;-77
2023/02/11 08:10:02;;;;;;;39.10;24.88;;;;;;;9.62;37.19;96310.34;5101849;28;20032;-79
2023/02/11 08:12:28;;;;;;;31.17;24.45;;;;;;;10.27;36.40;96307.25;5094500;28;20035;-79
2023/02/11 08:14:55;;;;;;;30.85;25.02;;;;;;;9.94;37.05;96307.56;5085920;28;20027;-80
2023/02/11 08:17:20;;;;;;;31.52;25.38;;;;;;;10.10;36.52;96299.28;5099223;28;20043;-81
2023/02/11 08:19:46;;;;;;;31.17;24.60;;;;;;;8.87;38.21;96307.25;5093259;28;20037;-79
2023/02/11 08:22:11;;;;;;;29.05;24.17;;;;;;;10.15;36.85;96307.50;5097370;28;20479;-82
2023/02/11 08:24:37;;;;;;;31.05;24.63;;;;;;;10.82;35.87;96313.50;5095721;28;20027;-81
2023/02/11 08:27:02;;;;;;;30.05;24.17;;;;;;;10.11;35.99;96300.94;5096122;28;20077;-80
2023/02/11 08:29:28;;;;;;;31.77;26.17;;;;;;;9.85;36.84;96306.63;5071913;28;20632;-80
2023/02/11 08:31:53;;;;;;;33.22;27.17;;;;;;;9.86;37.38;96302.22;5093411;28;20400;-76
2023/02/11 08:34:19;;;;;;;31.77;27.92;;;;;;;8.51;39.86;96303.31;5099299;28;20016;-78
2023/02/11 08:36:46;;;;;;;45.90;29.20;;;;;;;8.66;39.93;96312.44;5093193;28;20050;-79
2023/02/11 08:39:18;;;;;;;38.05;29.70;;;;;;;9.58;38.54;96302.97;5082299;28;20028;-80
2023/02/11 08:41:43;;;;;;;36.58;30.23;;;;;;;11.03;35.85;96310.75;5089274;28;20348;-80
2023/02/11 08:44:09;;;;;;;34.50;28.55;;;;;;;11.14;35.03;96305.41;5093448;28;20721;-79
2023/02/11 08:46:35;;;;;;;32.88;27.25;;;;;;;9.99;36.79;96308.81;5069361;28;20588;-79
2023/02/11 08:49:00;;;;;;;34.80;27.65;;;;;;;9.95;36.87;96312.59;5099091;28;20438;-79
2023/02/11 08:51:29;;;;;;;30.88;26.92;;;;;;;10.54;35.95;96306.56;5100237;28;20089;-78
2023/02/11 08:53:54;;;;;;;35.08;28.70;;;;;;;9.89;37.36;96301.97;5105244;28;20894;-77
2023/02/11 08:56:22;;;;;;;35.60;28.50;;;;;;;8.93;39.24;96302.41;5101419;28;20028;-76
2023/02/11 08:58:48;;;;;;;42.08;28.17;;;;;;;9.92;37.67;96297.34;5085476;27;20081;-78
2023/02/11 09:01:17;;;;;;;36.50;27.88;;;;;;;6.80;43.03;96306.47;5075885;28;20035;-77
2023/02/11 09:03:43;;;;;;;32.92;26.45;;;;;;;8.91;39.91;96303.47;5089638;28;20105;-78
2023/02/11 09:06:11;;;;;;;32.92;28.10;;;;;;;9.86;38.17;96299.63;5090089;28;20062;-79
2023/02/11 09:08:38;;;;;;;35.88;28.67;;;;;;;9.73;37.90;96302.47;5086215;28;20020;-78
2023/02/11 09:11:03;;;;;;;31.00;26.45;;;;;;;8.58;40.09;96291.56;5060262;28;20079;-77
2023/02/11 09:13:30;;;;;;;32.33;27.00;;;;;;;9.27;39.20;96295.25;5061613;28;20032;-78
2023/02/11 09:15:56;;;;;;;30.88;27.55;;;;;;;9.61;38.70;96294.94;5098085;27;20032;-77
2023/02/11 09:18:22;;;;;;;33.08;27.45;;;;;;;10.79;37.78;96300.81;5076940;28;20443;-78
2023/02/11 09:20:47;;;;;;;36.88;29.40;;;;;;;9.86;37.37;96295.28;5090942;28;20027;-77
2023/02/11 09:23:13;;;;;;;34.25;28.10;;;;;;;10.51;36.61;96289.53;5090713;28;20028;-78
2023/02/11 09:25:39;;;;;;;33.25;28.73;;;;;;;9.59;38.67;96286.50;5083097;28;20978;-79
2023/02/11 09:28:05;;;;;;;36.17;29.33;;;;;;;9.66;38.42;96282.44;5060797;28;20032;-79
2023/02/11 09:30:31;;;;;;;36.50;30.02;;;;;;;10.86;36.97;96278.56;5069901;28;20032;-78
2023/02/11 09:32:56;;;;;;;33.97;29.10;;;;;;;10.78;36.45;96275.88;5088338;28;20016;-78
2023/02/11 09:35:22;;;;;;;35.53;29.33;;;;;;;10.33;37.74;96270.47;5075145;28;20043;-78
2023/02/11 09:37:47;;;;;;;31.23;27.52;;;;;;;10.81;36.60;96264.41;5084910;28;20411;-77
2023/02/11 09:40:14;;;;;;;35.50;29.05;;;;;;;11.31;36.38;96257.16;5095616;28;20024;-78
2023/02/11 09:42:47;;;;;;;31.60;28.08;;;;;;;11.09;36.75;96261.75;5097934;28;20991;-77
2023/02/11 09:45:17;;;;;;;37.40;28.95;;;;;;;9.77;38.27;96256.47;5098981;28;21118;-78
2023/02/11 09:47:58;;;;;;;30.88;26.88;;;;;;;11.02;37.16;96257.25;5081570;28;20044;-78
2023/02/11 09:50:28;;;;;;;34.08;27.88;;;;;;;10.81;37.08;96244.50;5078977;28;20027;-77
2023/02/11 09:53:02;;;;;;;33.88;27.17;;;;;;;11.23;36.82;96246.69;5078110;28;20056;-78
2023/02/11 09:55:46;;;;;;;33.40;27.33;;;;;;;10.92;37.12;96233.13;5084527;28;20031;-77
2023/02/11 09:58:14;;;;;;;33.80;28.10;;;;;;;10.81;36.65;96230.72;5088696;28;20063;-77
2023/02/11 10:00:46;;;;;;;33.92;27.35;;;;;;;10.80;36.98;96224.72;5089397;28;20060;-78
2023/02/11 10:03:20;;;;;;;31.67;26.08;;;;;;;10.12;38.25;96228.31;5087069;28;20462;-78
2023/02/11 10:06:06;;;;;;;36.38;27.20;;;;;;;10.43;36.43;96223.84;5079039;28;20074;-77
2023/02/11 10:09:00;;;;;;;33.17;27.88;;;;;;;10.48;37.43;96219.88;5066495;28;20485;-80
2023/02/11 10:11:48;;;;;;;32.58;26.83;;;;;;;11.19;36.69;96214.22;5071701;28;20039;-79
2023/02/11 10:14:45;;;;;;;30.95;27.60;;;;;;;11.23;36.67;96206.03;5029780;28;20416;-80
2023/02/11 10:17:16;;;;;;;32.47;26.38;;;;;;;10.83;36.97;96201.09;5075540;28;20051;-78
2023/02/11 10:19:53;;;;;;;30.08;26.10;;;;;;;11.11;37.06;96189.81;5085445;28;20122;-79
2023/02/11 10:22:26;;;;;;;38.65;30.40;;;;;;;11.29;36.00;96181.28;5084666;28;20028;-78
2023/02/11 10:24:58;;;;;;;29.00;24.02;;;;;;;11.25;35.14;96169.56;5067502;28;20062;-78
2023/02/11 10:27:31;;;;;;;28.92;24.25;;;;;;;11.36;35.38;96164.19;5080398;28;20477;-77
2023/02/11 10:30:03;;;;;;;27.95;23.83;;;;;;;12.07;33.34;96165.09;5082195;28;20750;-78
2023/02/11 10:32:44;;;;;;;31.88;24.55;;;;;;;10.43;34.84;96159.09;5087085;28;20043;-77
2023/02/11 10:35:14;;;;;;;33.72;24.42;;;;;;;6.77;42.81;96157.38;5079605;28;20586;-79
2023/02/11 10:37:39;;;;;;;37.15;24.45;;;;;;;6.66;43.50;96150.47;5080895;28;20508;-78
2023/02/11 10:40:11;;;;;;;34.65;25.00;;;;;;;6.42;44.34;96144.63;5080532;28;20040;-79
2023/02/11 10:42:37;;;;;;;38.83;23.73;;;;;;;5.94;44.80;96127.72;5056814;28;20398;-79
2023/02/11 10:45:06;;;;;;;36.33;23.40;;;;;;;6.06;45.22;96121.66;5077327;28;20036;-78
2023/02/11 10:47:38;;;;;;;40.45;24.55;;;;;;;5.59;43.86;96130.25;5079297;28;20052;-79
2023/02/11 10:50:25;;;;;;;35.33;24.73;;;;;;;5.72;46.39;96124.09;5084891;28;20028;-78
2023/02/11 10:52:50;;;;;;;33.90;23.67;;;;;;;6.08;45.00;96109.50;5083047;28;20396;-80
2023/02/11 10:55:23;;;;;;;36.95;23.85;;;;;;;5.43;46.82;96109.97;5083054;28;20032;-80
2023/02/11 10:57:48;;;;;;;34.42;24.23;;;;;;;5.92;45.53;96103.84;5093041;28;20048;-80
2023/02/11 11:00:19;;;;;;;34.55;23.25;;;;;;;5.74;46.17;96103.44;5097911;28;20035;-81
2023/02/11 11:02:52;;;;;;;37.92;23.70;;;;;;;5.90;45.00;96101.41;5095247;28;20024;-81
2023/02/11 11:05:21;;;;;;;39.25;24.50;;;;;;;5.77;44.98;96093.75;5100367;28;20031;-80
2023/02/11 11:07:58;;;;;;;37.75;24.55;;;;;;;5.63;45.71;96096.50;5093177;28;20034;-80
2023/02/11 11:10:36;;;;;;;37.47;24.13;;;;;;;5.08;46.47;96089.41;5101469;28;20035;-79
2023/02/11 11:13:02;;;;;;;38.30;23.77;;;;;;;5.39;47.66;96090.59;5099474;28;20024;-80
2023/02/11 11:15:29;;;;;;;34.03;23.80;;;;;;;5.27;48.34;96086.31;5075965;28;20500;-79
2023/02/11 11:18:17;;;;;;;38.88;24.73;;;;;;;5.37;48.78;96078.78;5099175;28;20042;-80
2023/02/11 11:20:57;;;;;;;37.28;23.08;;;;;;;5.13;48.21;96081.38;5099255;28;20036;-78
2023/02/11 11:23:23;;;;;;;;;;;;;;;5.24;48.01;96078.84;5070261;28;20626;-80
2023/02/11 11:26:07;;;;;;;37.30;23.58;;;;;;;5.00;48.48;96081.44;5094953;28;19916;-79
2023/02/11 11:29:00;;;;;;;36.72;23.08;;;;;;;4.97;49.20;96075.69;5070475;28;20036;-80
2023/02/11 11:31:29;;;;;;;40.10;23.92;;;;;;;5.00;48.10;96080.63;5085695;28;20090;-79
2023/02/11 11:33:57;;;;;;;33.70;23.63;;;;;;;4.94;49.07;96070.78;5076848;28;20029;-79
2023/02/11 11:36:31;;;;;;;32.70;22.48;;;;;;;5.07;49.44;96071.56;5088856;28;20040;-80
2023/02/11 11:39:00;;;;;;;38.75;23.65;;;;;;;5.13;49.01;96061.66;5085991;28;20405;-80
2023/02/11 11:41:29;;;;;;;43.40;24.08;;;;;;;5.00;49.34;96067.78;5091960;28;20025;-80
2023/02/11 11:44:15;;;;;;;33.65;22.27;;;;;;;4.43;50.85;96067.56;5076716;28;20039;-79
2023/02/11 11:46:42;;;;;;;34.67;21.83;;;;;;;4.47;51.18;96067.22;5075050;28;20032;-79
2023/02/11 11:49:30;;;;;;;36.22;21.85;;;;;;;4.58;49.65;96063.91;5081869;28;20061;-79
2023/02/11 11:52:09;;;;;;;34.45;22.60;;;;;;;4.84;50.89;96044.97;5112924;28;20543;-83
2023/02/11 11:54:35;;;;;;;37.63;23.65;;;;;;;4.61;50.18;96044.00;5104982;28;20036;-80
2023/02/11 11:57:11;;;;;;;32.08;22.23;;;;;;;4.62;49.77;96040.50;5113253;28;20043;-80
2023/02/11 11:59:37;;;;;;;34.47;20.88;;;;;;;4.74;49.24;96038.84;5102232;28;20029;-83
2023/02/11 12:02:17;;;;;;;32.55;21.27;;;;;;;4.90;49.90;96026.56;5092860;28;20032;-79
2023/02/11 12:04:48;;;;;;;28.80;20.60;;;;;;;4.73;49.59;96032.88;5101481;28;20445;-80
2023/02/11 12:07:23;;;;;;;34.80;20.15;;;;;;;4.56;49.61;96022.19;5103716;28;20036;-82
2023/02/11 12:10:23;;;;;;;31.52;19.60;;;;;;;4.50;49.88;96031.09;5107218;28;20083;-82
2023/02/11 12:13:06;;;;;;;29.23;19.42;;;;;;;4.38;49.06;96016.56;5059438;28;20048;-81
2023/02/11 12:15:36;;;;;;;43.75;20.75;;;;;;;4.54;50.01;96016.31;5094536;28;20421;-81
2023/02/11 12:18:22;;;;;;;27.95;19.38;;;;;;;4.61;50.37;96015.78;5083102;28;20038;-80
2023/02/11 12:20:53;;;;;;;28.55;18.95;;;;;;;4.53;49.45;96018.06;5076747;28;20451;-84
2023/02/11 12:23:40;;;;;;;27.73;18.50;;;;;;;4.41;48.38;96005.28;5068325;28;20112;-79
2023/02/11 12:26:15;;;;;;;27.83;19.02;;;;;;;4.39;48.91;95996.88;5073621;28;20420;-79
2023/02/11 12:28:50;;;;;;;28.73;17.67;;;;;;;4.49;48.96;95997.88;5095286;28;20016;-77
2023/02/11 12:31:39;;;;;;;26.45;17.33;;;;;;;4.62;48.78;95994.31;5079795;28;20028;-78
2023/02/11 12:34:19;;;;;;;29.10;18.17;;;;;;;4.87;48.50;95982.31;5064788;28;20497;-79
2023/02/11 12:37:26;;;;;;;23.10;16.85;;;;;;;4.53;47.39;95984.72;5071888;28;20074;-78
2023/02/11 12:40:17;;;;;;;30.52;16.88;;;;;;;4.70;47.76;95974.09;4966283;28;20061;-77
2023/02/11 12:43:21;;;;;;;28.70;17.70;;;;;;;4.44;47.81;95970.00;4983578;28;20149;-77
2023/02/11 12:46:04;;;;;;;26.67;16.77;;;;;;;4.45;47.62;95973.38;5074674;28;20097;-77
2023/02/11 12:48:36;;;;;;;26.77;18.08;;;;;;;4.71;47.42;95968.03;5071208;28;20047;-79
2023/02/11 12:51:22;;;;;;;27.77;16.40;;;;;;;4.48;47.27;95973.16;5081945;28;20036;-78
2023/02/11 12:54:09;;;;;;;26.63;17.88;;;;;;;4.42;48.35;95961.59;5083379;28;20061;-79
2023/02/11 12:56:53;;;;;;;27.63;17.35;;;;;;;4.69;48.63;95966.50;5075210;28;20043;-78
2023/02/11 12:59:32;;;;;;;25.88;16.50;;;;;;;4.76;47.07;95962.56;5083758;28;20059;-78
2023/02/11 13:01:58;;;;;;;29.73;16.77;;;;;;;4.84;46.70;95960.28;5087613;28;20412;-79
2023/02/11 13:04:43;;;;;;;28.38;16.75;;;;;;;4.61;47.98;95951.66;5068015;28;20409;-77
2023/02/11 13:07:13;;;;;;;25.77;15.80;;;;;;;4.64;47.40;95955.75;5094984;28;20020;-78
2023/02/11 13:09:47;;;;;;;21.60;14.70;;;;;;;4.54;47.17;95940.22;5084115;28;20024;-77
2023/02/11 13:15:03;;;;;;;22.90;14.90;;;;;;;4.51;46.37;95944.72;5085231;28;20093;-77
2023/02/11 13:17:35;;;;;;;21.30;14.88;;;;;;;4.48;47.67;95950.09;5092368;28;20070;-77
2023/02/11 13:20:16;;;;;;;23.63;16.33;;;;;;;4.47;49.06;95946.69;5053658;28;20069;-78
2023/02/11 13:22:56;;;;;;;23.38;14.40;;;;;;;4.40;46.95;95937.78;5081082;28;20036;-77
2023/02/11 13:25:29;;;;;;;24.45;14.57;;;;;;;4.48;46.92;95934.69;5080797;28;20416;-78
2023/02/11 13:28:13;;;;;;;25.42;14.38;;;;;;;4.47;47.05;95939.00;5083632;28;20893;-78
2023/02/11 13:30:45;;;;;;;21.55;15.20;;;;;;;4.39;47.63;95937.91;5083254;28;20082;-78
2023/02/11 13:33:34;;;;;;;23.75;15.02;;;;;;;4.50;48.21;95931.09;5081557;28;20564;-77
2023/02/11 13:35:59;;;;;;;25.90;14.73;;;;;;;4.53;48.49;95938.56;5082609;28;20058;-78
2023/02/11 13:38:28;;;;;;;21.58;14.38;;;;;;;4.53;47.70;95927.47;5066587;28;20033;-78
2023/02/11 13:41:10;;;;;;;21.38;12.82;;;;;;;4.53;47.32;95917.22;5083733;28;20481;-78
2023/02/11 13:43:35;;;;;;;21.27;13.45;;;;;;;4.65;46.38;95926.63;5083433;28;20035;-79
2023/02/11 13:46:09;;;;;;;22.13;15.35;;;;;;;4.45;46.50;95924.66;5083377;28;20044;-77
2023/02/11 13:48:45;;;;;;;19.17;12.77;;;;;;;4.39;47.93;95918.22;5081034;28;20036;-77
2023/02/11 13:51:14;;;;;;;20.45;13.07;;;;;;;4.35;48.28;95915.97;5079566;28;20054;-77
2023/02/11 13:53:56;;;;;;;20.00;12.38;;;;;;;4.44;48.54;95913.56;5064451;28;20398;-78
2023/02/11 13:56:37;;;;;;;19.20;12.60;;;;;;;4.46;48.29;95916.03;5051624;28;20398;-78
2023/02/11 13:59:05;;;;;;;18.60;12.10;;;;;;;4.27;49.07;95915.72;5080332;28;20111;-78
2023/02/11 14:08:56;;;;;;;19.90;12.73;;;;;;;4.40;48.16;95901.91;5068240;28;20401;-77
2023/02/11 14:10:41;;;;;;;17.35;11.55;;;;;;;4.34;48.51;95883.56;5069059;28;20031;-77
2023/02/11 14:13:27;;;;;;;21.85;13.60;;;;;;;4.20;48.32;95892.25;5065346;28;20032;-77
2023/02/11 14:16:14;;;;;;;17.77;12.98;;;;;;;4.34;48.24;95891.25;5082172;28;20056;-77
2023/02/11 14:18:43;;;;;;;19.02;11.82;;;;;;;4.14;49.05;95883.25;5092698;28;20119;-77
2023/02/11 14:21:13;;;;;;;12.68;10.25;;;;;;;4.21;49.52;95883.63;5073447;28;20024;-77
2023/02/11 14:23:40;;;;;;;20.27;10.57;;;;;;;4.09;48.79;95877.63;5077974;28;20023;-76
2023/02/11 14:26:20;;;;;;;15.82;9.48;;;;;;;3.95;48.13;95882.91;5070387;28;20063;-77
2023/02/11 14:29:19;;;;;;;11.43;9.35;;;;;;;3.95;48.67;95879.53;5076993;28;20035;-78
2023/02/11 14:32:16;;;;;;;12.43;9.00;;;;;;;3.83;48.83;95876.09;5069182;28;20028;-77
2023/02/11 14:35:00;;;;;;;20.90;9.73;;;;;;;3.81;49.20;95880.50;5071477;28;20031;-77
2023/02/11 14:37:46;;;;;;;13.52;10.15;;;;;;;3.70;49.99;95885.53;5081897;28;20564;-77
2023/02/11 14:40:28;;;;;;;17.02;10.25;;;;;;;3.64;49.77;95878.28;5085356;28;20635;-77
2023/02/11 14:42:54;;;;;;;15.55;10.10;;;;;;;3.51;50.57;95882.59;5070373;28;20493;-78
2023/02/11 14:45:23;;;;;;;18.55;10.52;;;;;;;3.44;51.40;95882.19;5067224;28;20040;-77
2023/02/11 14:47:55;;;;;;;13.95;10.55;;;;;;;3.38;52.08;95880.06;5077737;28;20060;-77
2023/02/11 14:50:33;;;;;;;13.90;10.13;;;;;;;3.33;52.08;95884.69;5070818;28;20497;-77
2023/02/11 14:53:00;;;;;;;16.00;10.52;;;;;;;3.26;52.30;95880.91;5078059;28;20016;-77
2023/02/11 14:55:37;;;;;;;14.48;10.68;;;;;;;3.12;53.04;95884.38;5062441;28;20112;-77
2023/02/11 14:58:18;;;;;;;14.23;10.63;;;;;;;2.97;54.74;95884.59;5070190;28;20043;-77
2023/02/11 15:00:54;;;;;;;17.88;10.75;;;;;;;2.96;55.26;95885.50;5065785;28;20032;-77
2023/02/11 15:03:33;;;;;;;14.30;10.68;;;;;;;3.01;54.80;95881.72;5077272;28;20027;-77
2023/02/11 15:06:12;;;;;;;19.70;12.10;;;;;;;2.93;55.15;95883.13;5073387;28;20032;-77
2023/02/11 15:08:43;;;;;;;21.10;11.48;;;;;;;2.84;55.53;95879.47;5053407;28;20101;-77
2023/02/11 15:11:11;;;;;;;17.05;11.82;;;;;;;2.78;55.81;95879.03;5071009;28;20029;-77
2023/02/11 15:13:37;;;;;;;15.95;11.73;;;;;;;2.69;56.15;95877.91;5076918;28;20028;-77
2023/02/11 15:16:08;;;;;;;29.02;16.05;;;;;;;2.61;56.14;95880.97;5073188;28;20039;-77
2023/02/11 15:18:37;;;;;;;29.20;16.58;;;;;;;2.49;56.37;95870.72;5059740;28;20028;-77
2023/02/11 15:21:03;;;;;;;27.73;16.30;;;;;;;2.41;56.65;95871.19;5079144;28;20081;-77
2023/02/11 15:23:29;;;;;;;28.08;16.65;;;;;;;2.28;57.02;95867.78;5078779;28;20057;-77
2023/02/11 15:25:55;;;;;;;24.95;15.45;;;;;;;2.15;57.48;95873.78;5088509;28;20575;-77
2023/02/11 15:28:27;;;;;;;21.02;14.48;;;;;;;1.97;58.70;95862.97;5062153;28;20141;-77
2023/02/11 15:31:04;;;;;;;19.02;13.65;;;;;;;1.92;58.79;95870.13;5065279;28;20786;-76
2023/02/11 15:33:31;;;;;;;17.70;12.55;;;;;;;1.73;58.86;95861.97;5073667;28;20492;-77
2023/02/11 15:36:01;;;;;;;13.95;11.40;;;;;;;1.63;59.53;95861.72;5068936;28;20185;-77
2023/02/11 15:38:28;;;;;;;20.30;12.68;;;;;;;1.51;61.11;95858.16;5076437;28;20032;-77
2023/02/11 15:40:59;;;;;;;21.65;12.88;;;;;;;1.37;61.69;95868.41;5072519;28;20047;-77
2023/02/11 15:43:43;;;;;;;30.02;16.80;;;;;;;1.22;64.03;95865.97;5053734;28;20865;-77
2023/02/11 15:46:11;;;;;;;28.25;15.93;;;;;;;1.09;64.24;95867.59;5071896;28;20024;-77
2023/02/11 15:48:41;;;;;;;28.23;17.05;;;;;;;1.05;64.64;95869.50;5075043;28;20032;-76
2023/02/11 15:51:11;;;;;;;19.77;14.27;;;;;;;1.07;63.28;95865.13;5041969;28;20826;-76
2023/02/11 15:53:39;;;;;;;22.60;15.02;;;;;;;1.12;63.58;95863.13;5066122;28;20105;-75
2023/02/11 15:56:41;;;;;;;27.15;18.23;;;;;;;0.90;63.60;95858.47;5077676;28;20039;-75
2023/02/11 15:59:26;;;;;;;21.73;13.55;;;;;;;0.63;63.79;95862.63;5060222;28;20042;-76
2023/02/11 16:01:52;;;;;;;21.15;13.25;;;;;;;0.49;64.19;95868.50;5075374;28;20082;-75
2023/02/11 16:04:20;;;;;;;24.05;13.82;;;;;;;0.44;62.45;95862.88;5089442;28;20106;-75
2023/02/11 16:06:46;;;;;;;19.85;14.07;;;;;;;0.21;63.73;95860.78;5068407;28;21041;-76
2023/02/11 16:09:12;;;;;;;20.00;10.93;;;;;;;0.10;64.62;95858.00;5063151;28;20124;-76
2023/02/11 16:11:46;;;;;;;21.20;12.38;;;;;;;-0.20;69.13;95865.63;5073652;28;20561;-75
2023/02/11 16:14:28;;;;;;;17.98;12.45;;;;;;;-0.24;69.32;95863.31;5078266;28;20073;-76
2023/02/11 16:17:06;;;;;;;29.75;17.30;;;;;;;-0.32;68.85;95858.63;5079643;28;20085;-75
2023/02/11 16:19:32;;;;;;;29.67;20.50;;;;;;;-0.37;67.82;95863.16;5072363;28;20028;-75
2023/02/11 16:22:01;;;;;;;32.70;18.77;;;;;;;-0.51;68.67;95864.81;5090445;28;20024;-75
2023/02/11 16:24:32;;;;;;;45.10;22.80;;;;;;;-0.66;71.45;95859.63;5076119;28;20404;-75
2023/02/11 16:27:03;;;;;;;38.00;20.17;;;;;;;-0.74;73.02;95848.22;5094287;28;20023;-75
2023/02/11 16:29:35;;;;;;;34.22;19.35;;;;;;;-0.90;75.96;95867.72;5075802;28;20427;-75
2023/02/11 16:32:06;;;;;;;34.22;21.33;;;;;;;-1.05;77.22;95856.59;5091935;28;20036;-74
2023/02/11 16:34:31;;;;;;;27.98;16.30;;;;;;;-0.88;72.74;95861.66;5081270;28;20044;-75
2023/02/11 16:36:57;;;;;;;30.77;17.33;;;;;;;-0.59;68.53;95858.41;5085666;28;20024;-75
2023/02/11 16:39:22;;;;;;;21.65;13.35;;;;;;;-0.78;69.53;95867.06;5056742;28;20044;-75
2023/02/11 16:41:51;;;;;;;25.60;16.60;;;;;;;-0.97;72.18;95872.28;5074813;28;20023;-75
2023/02/11 16:44:17;;;;;;;62.15;32.20;;;;;;;-0.87;70.86;95865.84;5077795;28;20060;-75
2023/02/11 16:46:44;;;;;;;50.95;31.50;;;;;;;-1.01;72.78;95864.88;5073230;28;20087;-75
2023/02/11 16:49:32;;;;;;;41.45;23.70;;;;;;;-0.71;72.79;95865.84;5083509;28;20465;-75
2023/02/11 16:52:04;;;;;;;34.33;20.63;;;;;;;-0.49;69.05;95861.28;5058222;28;20031;-75
2023/02/11 16:54:30;;;;;;;31.77;18.20;;;;;;;-0.35;67.55;95863.09;5075186;28;20054;-75
2023/02/11 16:56:56;;;;;;;29.92;18.98;;;;;;;-0.38;67.84;95866.59;5076404;28;20028;-75
2023/02/11 16:59:22;;;;;;;36.35;21.80;;;;;;;-0.31;67.56;95862.81;5059135;28;20047;-75
2023/02/11 17:01:48;;;;;;;47.80;26.10;;;;;;;-0.22;66.97;95861.50;5061203;28;20034;-75
2023/02/11 17:04:19;;;;;;;38.88;23.20;;;;;;;-0.41;67.82;95864.22;5085583;28;20114;-75
2023/02/11 17:06:46;;;;;;;44.70;25.60;;;;;;;-0.29;66.58;95862.75;5078371;28;20093;-75
2023/02/11 17:09:30;;;;;;;40.53;23.98;;;;;;;-0.31;64.95;95874.72;5082131;28;20077;-75
2023/02/11 17:11:55;;;;;;;26.48;16.63;;;;;;;-0.43;64.16;95866.03;5056735;28;20089;-75
2023/02/11 17:14:21;;;;;;;30.40;17.45;;;;;;;-0.53;64.42;95859.78;5055327;28;20035;-75
2023/02/11 17:16:46;;;;;;;39.88;20.60;;;;;;;-0.51;65.54;95868.16;5076867;28;20455;-75
2023/02/11 17:19:14;;;;;;;38.33;19.50;;;;;;;-0.52;65.74;95860.63;5077700;28;20024;-74
2023/02/11 17:21:43;;;;;;;62.10;30.55;;;;;;;-0.57;66.71;95866.75;5081762;28;20147;-75
2023/02/11 17:24:09;;;;;;;61.88;29.65;;;;;;;-0.65;66.62;95863.00;5092255;28;20119;-75
2023/02/11 17:26:35;;;;;;;41.97;22.20;;;;;;;-0.56;64.56;95854.88;5095727;28;20027;-75
2023/02/11 17:29:04;;;;;;;51.55;24.13;;;;;;;-0.67;65.48;95854.59;5076999;28;20039;-75
2023/02/11 17:31:29;;;;;;;50.97;22.27;;;;;;;-0.89;66.83;95860.00;5080303;28;20551;-75
2023/02/11 17:33:55;;;;;;;35.75;20.13;;;;;;;-0.99;67.52;95858.81;5078775;28;20020;-75
2023/02/11 17:36:20;;;;;;;39.47;21.40;;;;;;;-1.09;67.69;95852.56;5076868;28;20050;-75
2023/02/11 17:38:46;;;;;;;36.25;19.05;;;;;;;-1.20;67.80;95854.84;5074195;28;20124;-75
2023/02/11 17:41:11;;;;;;;38.92;19.90;;;;;;;-1.26;68.58;95865.31;5065806;28;20056;-75
2023/02/11 17:43:37;;;;;;;33.72;18.50;;;;;;;-1.32;68.60;95861.38;5079555;28;20107;-75
2023/02/11 17:46:06;;;;;;;41.97;20.70;;;;;;;-1.43;70.31;95870.41;5079507;28;20597;-75
2023/02/11 17:48:31;;;;;;;75.65;34.55;;;;;;;-1.54;71.83;95878.53;5078686;28;20032;-75
2023/02/11 17:50:56;;;;;;;71.63;37.85;;;;;;;-1.70;73.88;95865.78;5051480;28;20039;-74
2023/02/11 17:53:22;;;;;;;55.70;27.75;;;;;;;-1.81;75.78;95884.97;5057604;28;20028;-75
2023/02/11 17:55:47;;;;;;;36.72;21.70;;;;;;;-1.98;77.61;95873.06;5077575;28;20027;-75
2023/02/11 17:58:13;;;;;;;40.97;22.67;;;;;;;-1.98;78.42;95880.69;5079451;28;20553;-75
2023/02/11 18:00:38;;;;;;;47.63;20.98;;;;;;;-2.12;79.31;95875.47;5077758;28;20493;-75
2023/02/11 18:03:04;;;;;;;48.42;21.95;;;;;;;-2.07;79.66;95875.22;5078819;28;20032;-75
2023/02/11 18:05:34;;;;;;;62.92;27.67;;;;;;;-2.19;81.15;95892.69;5075624;28;20031;-75
2023/02/11 18:07:59;;;;;;;50.17;28.45;;;;;;;-2.28;84.88;95889.75;5083461;28;20109;-74
2023/02/11 18:10:25;;;;;;;52.95;29.15;;;;;;;-2.38;87.43;95880.91;5071546;28;20028;-74
2023/02/11 18:12:51;;;;;;;56.80;29.15;;;;;;;-2.38;88.29;95889.34;5084354;28;20032;-75
2023/02/11 18:15:16;;;;;;;66.50;29.83;;;;;;;-2.40;89.27;95897.88;5074808;28;20027;-75
2023/02/11 18:17:42;;;;;;;77.15;41.38;;;;;;;-2.50;90.30;95894.13;5055192;28;20493;-75
2023/02/11 18:20:08;;;;;;;84.95;45.88;;;;;;;-2.52;91.29;95896.75;5089847;28;20039;-75
2023/02/11 18:22:38;;;;;;;219.32;75.07;;;;;;;-2.66;92.21;95899.88;5088709;28;20110;-75
2023/02/11 18:25:07;;;;;;;148.75;59.60;;;;;;;-2.74;93.07;95894.34;5090144;28;20039;-74
2023/02/11 18:27:34;;;;;;;164.85;56.35;;;;;;;-2.84;93.45;95888.03;5095356;28;20409;-74
2023/02/11 18:29:59;;;;;;;189.93;64.80;;;;;;;-2.86;93.64;95889.00;5076606;28;20043;-75
2023/02/11 18:32:25;;;;;;;199.05;63.40;;;;;;;-2.81;93.59;95895.50;5078270;28;20397;-75
2023/02/11 18:34:50;;;;;;;160.52;56.78;;;;;;;-2.84;94.21;95884.66;5076953;28;20051;-75
2023/02/11 18:37:16;;;;;;;141.55;55.28;;;;;;;-2.75;94.46;95881.72;5075752;28;20062;-74
2023/02/11 18:39:42;;;;;;;112.03;49.95;;;;;;;-2.53;93.87;95886.66;5076300;28;20053;-74
2023/02/11 18:42:08;;;;;;;81.75;40.45;;;;;;;-2.48;93.23;95879.69;5059815;28;20059;-74
2023/02/11 18:44:35;;;;;;;79.07;39.45;;;;;;;-2.30;92.02;95878.84;5075763;28;20024;-74
2023/02/11 18:47:01;;;;;;;76.10;39.15;;;;;;;-2.16;92.02;95876.50;5075282;28;20095;-75
2023/02/11 18:49:26;;;;;;;61.38;33.65;;;;;;;-2.03;91.23;95874.19;5079522;28;20520;-74
2023/02/11 18:51:52;;;;;;;62.75;32.83;;;;;;;-2.01;90.78;95864.78;5078338;28;20530;-74
2023/02/11 18:54:17;;;;;;;62.85;36.40;;;;;;;-2.03;90.37;95872.50;5084892;28;20040;-75
2023/02/11 18:56:42;;;;;;;68.68;37.97;;;;;;;-2.10;90.44;95860.16;5077666;28;20489;-75
2023/02/11 18:59:08;;;;;;;63.95;36.60;;;;;;;-2.12;91.39;95872.94;5092341;28;20417;-74
2023/02/11 19:01:34;;;;;;;62.10;34.75;;;;;;;-2.09;91.57;95866.88;5077340;28;20059;-75
2023/02/11 19:04:03;;;;;;;65.32;37.85;;;;;;;-1.92;90.77;95859.28;5087838;28;20039;-75
2023/02/11 19:06:31;;;;;;;60.47;36.03;;;;;;;-2.22;92.21;95864.94;5081309;28;20024;-74
2023/02/11 19:08:59;;;;;;;60.33;33.22;;;;;;;-2.18;92.66;95865.56;5097928;28;20065;-75
2023/02/11 19:14:12;;;;;;;316.42;92.90;;;;;;;-2.13;92.15;95867.03;5074991;28;20278;-75
2023/02/11 19:16:41;;;;;;;259.02;90.07;;;;;;;-2.36;92.48;95863.91;5079397;28;20036;-75
2023/02/11 19:19:07;;;;;;;214.00;80.88;;;;;;;-2.46;93.26;95868.56;5078702;28;20558;-74
2023/02/11 19:21:33;;;;;;;194.13;74.90;;;;;;;-2.50;94.00;95868.75;5056056;28;20035;-75
2023/02/11 19:23:59;;;;;;;244.05;94.60;;;;;;;-2.61;94.38;95863.38;5046790;28;20024;-74
2023/02/11 19:26:26;;;;;;;451.02;181.88;;;;;;;-2.69;94.04;95863.72;5076143;28;20024;-75
2023/02/11 19:28:52;;;;;;;177.48;76.57;;;;;;;-2.70;94.09;95860.34;5077761;28;20013;-74
2023/02/11 19:31:17;;;;;;;179.55;75.53;;;;;;;-2.74;94.08;95858.03;5076387;28;20049;-75
2023/02/11 19:33:43;;;;;;;133.13;57.75;;;;;;;-2.84;93.68;95854.28;5076194;28;20028;-75
2023/02/11 19:36:10;;;;;;;213.27;85.07;;;;;;;-2.93;94.74;95865.66;5078227;28;20311;-75
2023/02/11 19:38:36;;;;;;;391.67;151.05;;;;;;;-2.98;96.32;95869.25;5078744;28;20038;-75
2023/02/11 19:41:02;;;;;;;147.45;59.08;;;;;;;-3.05;96.46;95862.81;5078320;28;20513;-74